sensor_id;sensor_type;location;lat;lon;timestamp;P1;durP1;ratioP1;P2;durP2;ratioP2
67819;SDS011;54618;52.018;5.576;2023-04-29T00:01:10;6.45;;;2.95;;
67819;SDS011;54618;52.018;5.576;2023-04-29T00:03:35;5.03;;;2.88;;
67819;SDS011;54618;52.018;5.576;2023-04-29T00:06:01;4.95;;;2.60;;
67819;SDS011;54618;52.018;5.576;2023-04-29T00:08:26;4.88;;;2.80;;
67819;SDS011;54618;52.018;5.576;2023-04-29T00:10:52;5.25;;;2.70;;
67819;SDS011;54618;52.018;5.576;2023-04-29T00:13:18;5.28;;;2.25;;
67819;SDS011;54618;52.018;5.576;2023-04-29T00:15:43;4.72;;;2.80;;
67819;SDS011;54618;52.018;5.576;2023-04-29T00:18:09;5.60;;;2.42;;
67819;SDS011;54618;52.018;5.576;2023-04-29T00:20:35;5.07;;;2.60;;
67819;SDS011;54618;52.018;5.576;2023-04-29T00:23:02;4.60;;;2.58;;
67819;SDS011;54618;52.018;5.576;2023-04-29T00:25:27;4.93;;;2.53;;
67819;SDS011;54618;52.018;5.576;2023-04-29T00:27:53;4.30;;;2.53;;
67819;SDS011;54618;52.018;5.576;2023-04-29T00:30:18;6.07;;;2.55;;
67819;SDS011;54618;52.018;5.576;2023-04-29T00:32:44;4.45;;;2.38;;
67819;SDS011;54618;52.018;5.576;2023-04-29T00:35:10;4.15;;;2.58;;
67819;SDS011;54618;52.018;5.576;2023-04-29T00:37:36;4.07;;;2.50;;
67819;SDS011;54618;52.018;5.576;2023-04-29T00:40:01;4.22;;;2.70;;
67819;SDS011;54618;52.018;5.576;2023-04-29T00:42:29;5.05;;;2.78;;
67819;SDS011;54618;52.018;5.576;2023-04-29T00:44:57;5.07;;;2.67;;
67819;SDS011;54618;52.018;5.576;2023-04-29T00:47:22;4.75;;;2.45;;
67819;SDS011;54618;52.018;5.576;2023-04-29T00:49:48;4.85;;;2.50;;
67819;SDS011;54618;52.018;5.576;2023-04-29T00:52:14;5.88;;;2.75;;
67819;SDS011;54618;52.018;5.576;2023-04-29T00:54:41;5.45;;;2.80;;
67819;SDS011;54618;52.018;5.576;2023-04-29T00:57:08;4.53;;;2.60;;
67819;SDS011;54618;52.018;5.576;2023-04-29T00:59:33;4.80;;;2.90;;
67819;SDS011;54618;52.018;5.576;2023-04-29T01:02:03;4.82;;;2.67;;
67819;SDS011;54618;52.018;5.576;2023-04-29T01:04:29;4.80;;;2.65;;
67819;SDS011;54618;52.018;5.576;2023-04-29T01:10:03;5.03;;;2.53;;
67819;SDS011;54618;52.018;5.576;2023-04-29T01:12:50;4.55;;;2.40;;
67819;SDS011;54618;52.018;5.576;2023-04-29T01:15:31;5.00;;;2.60;;
67819;SDS011;54618;52.018;5.576;2023-04-29T01:18:28;4.85;;;2.72;;
67819;SDS011;54618;52.018;5.576;2023-04-29T01:20:57;3.85;;;2.38;;
67819;SDS011;54618;52.018;5.576;2023-04-29T01:23:27;4.25;;;2.50;;
67819;SDS011;54618;52.018;5.576;2023-04-29T01:25:53;4.22;;;2.53;;
67819;SDS011;54618;52.018;5.576;2023-04-29T01:28:35;5.80;;;2.60;;
67819;SDS011;54618;52.018;5.576;2023-04-29T01:31:27;4.15;;;2.45;;
67819;SDS011;54618;52.018;5.576;2023-04-29T01:39:45;4.15;;;2.40;;
67819;SDS011;54618;52.018;5.576;2023-04-29T01:42:24;5.32;;;2.30;;
67819;SDS011;54618;52.018;5.576;2023-04-29T01:44:54;5.40;;;2.65;;
67819;SDS011;54618;52.018;5.576;2023-04-29T01:47:24;4.07;;;2.28;;
67819;SDS011;54618;52.018;5.576;2023-04-29T01:49:51;4.07;;;2.25;;
67819;SDS011;54618;52.018;5.576;2023-04-29T01:52:17;4.72;;;2.53;;
67819;SDS011;54618;52.018;5.576;2023-04-29T01:54:42;4.43;;;2.17;;
67819;SDS011;54618;52.018;5.576;2023-04-29T01:57:08;4.97;;;2.35;;
67819;SDS011;54618;52.018;5.576;2023-04-29T01:59:34;3.65;;;2.10;;
67819;SDS011;54618;52.018;5.576;2023-04-29T02:02:00;5.47;;;2.28;;
67819;SDS011;54618;52.018;5.576;2023-04-29T02:04:25;4.00;;;2.30;;
67819;SDS011;54618;52.018;5.576;2023-04-29T02:06:52;3.72;;;2.30;;
67819;SDS011;54618;52.018;5.576;2023-04-29T02:09:18;4.20;;;2.30;;
67819;SDS011;54618;52.018;5.576;2023-04-29T02:11:44;4.40;;;2.50;;
67819;SDS011;54618;52.018;5.576;2023-04-29T02:14:09;4.70;;;2.28;;
67819;SDS011;54618;52.018;5.576;2023-04-29T02:16:36;3.90;;;2.13;;
67819;SDS011;54618;52.018;5.576;2023-04-29T02:19:02;5.50;;;2.13;;
67819;SDS011;54618;52.018;5.576;2023-04-29T02:21:27;3.60;;;1.90;;
67819;SDS011;54618;52.018;5.576;2023-04-29T02:23:53;4.00;;;2.08;;
67819;SDS011;54618;52.018;5.576;2023-04-29T02:26:19;4.53;;;2.60;;
67819;SDS011;54618;52.018;5.576;2023-04-29T02:28:44;4.00;;;2.17;;
67819;SDS011;54618;52.018;5.576;2023-04-29T02:31:10;3.78;;;2.10;;
67819;SDS011;54618;52.018;5.576;2023-04-29T02:33:36;4.75;;;2.30;;
67819;SDS011;54618;52.018;5.576;2023-04-29T02:36:01;5.07;;;2.10;;
67819;SDS011;54618;52.018;5.576;2023-04-29T02:38:27;4.93;;;2.30;;
67819;SDS011;54618;52.018;5.576;2023-04-29T02:40:53;4.57;;;2.10;;
67819;SDS011;54618;52.018;5.576;2023-04-29T02:43:19;3.58;;;2.00;;
67819;SDS011;54618;52.018;5.576;2023-04-29T02:45:44;3.53;;;1.92;;
67819;SDS011;54618;52.018;5.576;2023-04-29T02:48:10;3.70;;;2.10;;
67819;SDS011;54618;52.018;5.576;2023-04-29T02:50:35;3.45;;;1.83;;
67819;SDS011;54618;52.018;5.576;2023-04-29T02:53:01;3.95;;;2.13;;
67819;SDS011;54618;52.018;5.576;2023-04-29T02:55:26;3.53;;;2.03;;
67819;SDS011;54618;52.018;5.576;2023-04-29T02:57:52;4.20;;;2.03;;
67819;SDS011;54618;52.018;5.576;2023-04-29T03:00:18;3.20;;;1.85;;
67819;SDS011;54618;52.018;5.576;2023-04-29T03:02:44;3.70;;;2.13;;
67819;SDS011;54618;52.018;5.576;2023-04-29T03:05:09;4.00;;;2.13;;
67819;SDS011;54618;52.018;5.576;2023-04-29T03:07:35;3.55;;;1.85;;
67819;SDS011;54618;52.018;5.576;2023-04-29T03:10:01;3.55;;;2.13;;
67819;SDS011;54618;52.018;5.576;2023-04-29T03:12:26;4.15;;;2.10;;
67819;SDS011;54618;52.018;5.576;2023-04-29T03:14:52;3.17;;;2.15;;
67819;SDS011;54618;52.018;5.576;2023-04-29T03:17:17;3.70;;;2.13;;
67819;SDS011;54618;52.018;5.576;2023-04-29T03:19:43;3.38;;;1.77;;
67819;SDS011;54618;52.018;5.576;2023-04-29T03:22:08;3.88;;;1.88;;
67819;SDS011;54618;52.018;5.576;2023-04-29T03:24:35;4.28;;;1.95;;
67819;SDS011;54618;52.018;5.576;2023-04-29T03:27:01;3.72;;;2.00;;
67819;SDS011;54618;52.018;5.576;2023-04-29T03:29:28;3.33;;;1.88;;
67819;SDS011;54618;52.018;5.576;2023-04-29T03:31:54;2.97;;;1.90;;
67819;SDS011;54618;52.018;5.576;2023-04-29T03:34:20;3.83;;;2.00;;
67819;SDS011;54618;52.018;5.576;2023-04-29T03:36:46;3.60;;;1.90;;
67819;SDS011;54618;52.018;5.576;2023-04-29T03:39:12;4.07;;;1.95;;
67819;SDS011;54618;52.018;5.576;2023-04-29T03:41:37;3.33;;;1.90;;
67819;SDS011;54618;52.018;5.576;2023-04-29T03:44:03;2.95;;;1.92;;
67819;SDS011;54618;52.018;5.576;2023-04-29T03:46:29;3.97;;;1.88;;
67819;SDS011;54618;52.018;5.576;2023-04-29T03:48:55;3.80;;;1.88;;
67819;SDS011;54618;52.018;5.576;2023-04-29T03:51:22;4.15;;;1.90;;
67819;SDS011;54618;52.018;5.576;2023-04-29T03:53:48;3.63;;;1.80;;
67819;SDS011;54618;52.018;5.576;2023-04-29T03:56:14;3.63;;;1.98;;
67819;SDS011;54618;52.018;5.576;2023-04-29T03:58:40;4.05;;;2.00;;
67819;SDS011;54618;52.018;5.576;2023-04-29T04:01:06;3.45;;;1.80;;
67819;SDS011;54618;52.018;5.576;2023-04-29T04:03:31;3.15;;;1.70;;
67819;SDS011;54618;52.018;5.576;2023-04-29T04:05:57;3.90;;;1.88;;
67819;SDS011;54618;52.018;5.576;2023-04-29T04:08:22;3.00;;;1.83;;
67819;SDS011;54618;52.018;5.576;2023-04-29T04:10:48;3.38;;;1.80;;
67819;SDS011;54618;52.018;5.576;2023-04-29T04:13:14;3.72;;;1.80;;
67819;SDS011;54618;52.018;5.576;2023-04-29T04:15:39;3.50;;;1.90;;
67819;SDS011;54618;52.018;5.576;2023-04-29T04:18:06;3.35;;;1.73;;
67819;SDS011;54618;52.018;5.576;2023-04-29T04:20:32;4.18;;;2.20;;
67819;SDS011;54618;52.018;5.576;2023-04-29T04:22:57;2.85;;;1.83;;
67819;SDS011;54618;52.018;5.576;2023-04-29T04:25:23;2.72;;;1.70;;
67819;SDS011;54618;52.018;5.576;2023-04-29T04:27:49;2.65;;;1.63;;
67819;SDS011;54618;52.018;5.576;2023-04-29T04:30:14;3.65;;;1.85;;
67819;SDS011;54618;52.018;5.576;2023-04-29T04:32:40;3.22;;;1.85;;
67819;SDS011;54618;52.018;5.576;2023-04-29T04:35:06;3.03;;;1.88;;
67819;SDS011;54618;52.018;5.576;2023-04-29T04:37:32;2.92;;;1.73;;
67819;SDS011;54618;52.018;5.576;2023-04-29T04:39:57;2.75;;;1.73;;
67819;SDS011;54618;52.018;5.576;2023-04-29T04:42:23;3.20;;;1.75;;
67819;SDS011;54618;52.018;5.576;2023-04-29T04:44:49;2.55;;;1.50;;
67819;SDS011;54618;52.018;5.576;2023-04-29T04:47:14;3.08;;;1.70;;
67819;SDS011;54618;52.018;5.576;2023-04-29T04:49:40;4.10;;;2.00;;
67819;SDS011;54618;52.018;5.576;2023-04-29T04:52:05;2.53;;;1.65;;
67819;SDS011;54618;52.018;5.576;2023-04-29T04:54:31;3.38;;;1.80;;
67819;SDS011;54618;52.018;5.576;2023-04-29T04:56:57;3.35;;;1.80;;
67819;SDS011;54618;52.018;5.576;2023-04-29T04:59:22;3.25;;;1.95;;
67819;SDS011;54618;52.018;5.576;2023-04-29T05:01:48;3.17;;;1.90;;
67819;SDS011;54618;52.018;5.576;2023-04-29T05:04:14;3.45;;;1.95;;
67819;SDS011;54618;52.018;5.576;2023-04-29T05:06:40;3.08;;;1.75;;
67819;SDS011;54618;52.018;5.576;2023-04-29T05:09:05;3.67;;;1.85;;
67819;SDS011;54618;52.018;5.576;2023-04-29T05:11:31;3.00;;;1.90;;
67819;SDS011;54618;52.018;5.576;2023-04-29T05:13:56;3.45;;;1.75;;
67819;SDS011;54618;52.018;5.576;2023-04-29T05:16:22;2.63;;;1.80;;
67819;SDS011;54618;52.018;5.576;2023-04-29T05:18:47;3.05;;;1.80;;
67819;SDS011;54618;52.018;5.576;2023-04-29T05:21:13;2.65;;;1.70;;
67819;SDS011;54618;52.018;5.576;2023-04-29T05:23:39;2.63;;;1.70;;
67819;SDS011;54618;52.018;5.576;2023-04-29T05:26:04;3.55;;;1.88;;
67819;SDS011;54618;52.018;5.576;2023-04-29T05:28:30;2.83;;;1.70;;
67819;SDS011;54618;52.018;5.576;2023-04-29T05:30:55;3.55;;;2.13;;
67819;SDS011;54618;52.018;5.576;2023-04-29T05:33:21;3.00;;;1.35;;
67819;SDS011;54618;52.018;5.576;2023-04-29T05:35:46;2.22;;;1.50;;
67819;SDS011;54618;52.018;5.576;2023-04-29T05:38:12;1.88;;;1.25;;
67819;SDS011;54618;52.018;5.576;2023-04-29T05:40:37;2.53;;;1.50;;
67819;SDS011;54618;52.018;5.576;2023-04-29T05:43:03;2.80;;;1.40;;
67819;SDS011;54618;52.018;5.576;2023-04-29T05:45:29;3.35;;;1.58;;
67819;SDS011;54618;52.018;5.576;2023-04-29T05:47:54;2.50;;;1.20;;
67819;SDS011;54618;52.018;5.576;2023-04-29T05:50:20;1.98;;;1.20;;
67819;SDS011;54618;52.018;5.576;2023-04-29T05:52:45;1.92;;;1.27;;
67819;SDS011;54618;52.018;5.576;2023-04-29T05:55:11;2.10;;;1.40;;
67819;SDS011;54618;52.018;5.576;2023-04-29T05:57:36;2.50;;;1.50;;
67819;SDS011;54618;52.018;5.576;2023-04-29T06:00:02;2.05;;;1.10;;
67819;SDS011;54618;52.018;5.576;2023-04-29T06:02:30;3.13;;;1.33;;
67819;SDS011;54618;52.018;5.576;2023-04-29T06:04:56;2.13;;;1.25;;
67819;SDS011;54618;52.018;5.576;2023-04-29T06:07:21;2.10;;;1.20;;
67819;SDS011;54618;52.018;5.576;2023-04-29T06:09:48;2.10;;;1.30;;
67819;SDS011;54618;52.018;5.576;2023-04-29T06:12:14;1.90;;;1.20;;
67819;SDS011;54618;52.018;5.576;2023-04-29T06:14:39;2.70;;;1.40;;
67819;SDS011;54618;52.018;5.576;2023-04-29T06:17:05;2.58;;;1.30;;
67819;SDS011;54618;52.018;5.576;2023-04-29T06:19:30;2.30;;;1.17;;
67819;SDS011;54618;52.018;5.576;2023-04-29T06:21:57;1.83;;;1.17;;
67819;SDS011;54618;52.018;5.576;2023-04-29T06:24:23;3.38;;;1.33;;
67819;SDS011;54618;52.018;5.576;2023-04-29T06:26:48;3.13;;;1.50;;
67819;SDS011;54618;52.018;5.576;2023-04-29T06:29:14;2.58;;;1.52;;
67819;SDS011;54618;52.018;5.576;2023-04-29T06:31:40;2.40;;;1.23;;
67819;SDS011;54618;52.018;5.576;2023-04-29T06:34:05;2.70;;;1.27;;
67819;SDS011;54618;52.018;5.576;2023-04-29T06:36:31;2.33;;;1.20;;
67819;SDS011;54618;52.018;5.576;2023-04-29T06:38:56;2.20;;;1.23;;
67819;SDS011;54618;52.018;5.576;2023-04-29T06:41:22;2.20;;;1.30;;
67819;SDS011;54618;52.018;5.576;2023-04-29T06:43:48;3.22;;;1.55;;
67819;SDS011;54618;52.018;5.576;2023-04-29T06:46:13;2.13;;;1.20;;
67819;SDS011;54618;52.018;5.576;2023-04-29T06:48:39;1.52;;;1.00;;
67819;SDS011;54618;52.018;5.576;2023-04-29T06:51:04;2.03;;;1.15;;
67819;SDS011;54618;52.018;5.576;2023-04-29T06:53:30;2.15;;;1.23;;
67819;SDS011;54618;52.018;5.576;2023-04-29T06:55:55;1.70;;;1.20;;
67819;SDS011;54618;52.018;5.576;2023-04-29T06:58:21;1.65;;;1.20;;
67819;SDS011;54618;52.018;5.576;2023-04-29T07:00:47;1.73;;;1.10;;
67819;SDS011;54618;52.018;5.576;2023-04-29T07:03:14;1.90;;;1.20;;
67819;SDS011;54618;52.018;5.576;2023-04-29T07:05:40;2.67;;;1.25;;
67819;SDS011;54618;52.018;5.576;2023-04-29T07:08:07;2.13;;;1.30;;
67819;SDS011;54618;52.018;5.576;2023-04-29T07:10:34;1.90;;;1.20;;
67819;SDS011;54618;52.018;5.576;2023-04-29T07:12:59;2.03;;;1.30;;
67819;SDS011;54618;52.018;5.576;2023-04-29T07:15:28;1.85;;;1.20;;
67819;SDS011;54618;52.018;5.576;2023-04-29T07:17:54;2.00;;;1.30;;
67819;SDS011;54618;52.018;5.576;2023-04-29T07:20:20;1.63;;;1.13;;
67819;SDS011;54618;52.018;5.576;2023-04-29T07:22:46;2.20;;;1.17;;
67819;SDS011;54618;52.018;5.576;2023-04-29T07:25:11;1.75;;;1.17;;
67819;SDS011;54618;52.018;5.576;2023-04-29T07:27:38;2.10;;;1.20;;
67819;SDS011;54618;52.018;5.576;2023-04-29T07:30:04;1.83;;;1.10;;
67819;SDS011;54618;52.018;5.576;2023-04-29T07:32:30;2.30;;;1.10;;
67819;SDS011;54618;52.018;5.576;2023-04-29T07:34:55;1.95;;;1.30;;
67819;SDS011;54618;52.018;5.576;2023-04-29T07:37:21;1.75;;;1.17;;
67819;SDS011;54618;52.018;5.576;2023-04-29T07:39:47;2.63;;;1.20;;
67819;SDS011;54618;52.018;5.576;2023-04-29T07:42:12;1.83;;;1.20;;
67819;SDS011;54618;52.018;5.576;2023-04-29T07:44:38;2.63;;;1.10;;
67819;SDS011;54618;52.018;5.576;2023-04-29T07:47:04;2.85;;;1.10;;
67819;SDS011;54618;52.018;5.576;2023-04-29T07:49:29;1.83;;;1.17;;
67819;SDS011;54618;52.018;5.576;2023-04-29T07:51:55;1.88;;;1.02;;
67819;SDS011;54618;52.018;5.576;2023-04-29T07:54:21;2.58;;;1.20;;
67819;SDS011;54618;52.018;5.576;2023-04-29T07:56:47;2.63;;;1.10;;
67819;SDS011;54618;52.018;5.576;2023-04-29T07:59:13;2.00;;;1.20;;
67819;SDS011;54618;52.018;5.576;2023-04-29T08:01:41;1.98;;;1.30;;
67819;SDS011;54618;52.018;5.576;2023-04-29T08:04:07;2.53;;;1.10;;
67819;SDS011;54618;52.018;5.576;2023-04-29T08:06:32;2.47;;;1.30;;
67819;SDS011;54618;52.018;5.576;2023-04-29T08:08:58;1.90;;;1.10;;
67819;SDS011;54618;52.018;5.576;2023-04-29T08:11:24;1.83;;;1.25;;
67819;SDS011;54618;52.018;5.576;2023-04-29T08:13:51;2.45;;;1.17;;
67819;SDS011;54618;52.018;5.576;2023-04-29T08:16:16;2.20;;;1.35;;
67819;SDS011;54618;52.018;5.576;2023-04-29T08:18:42;2.03;;;1.00;;
67819;SDS011;54618;52.018;5.576;2023-04-29T08:21:08;2.47;;;1.00;;
67819;SDS011;54618;52.018;5.576;2023-04-29T08:23:35;2.30;;;1.20;;
67819;SDS011;54618;52.018;5.576;2023-04-29T08:26:03;2.33;;;0.93;;
67819;SDS011;54618;52.018;5.576;2023-04-29T08:28:29;3.75;;;1.02;;
67819;SDS011;54618;52.018;5.576;2023-04-29T08:30:55;5.80;;;1.20;;
67819;SDS011;54618;52.018;5.576;2023-04-29T08:33:20;2.40;;;1.23;;
67819;SDS011;54618;52.018;5.576;2023-04-29T08:35:46;1.73;;;1.05;;
67819;SDS011;54618;52.018;5.576;2023-04-29T08:38:11;2.17;;;1.20;;
67819;SDS011;54618;52.018;5.576;2023-04-29T08:40:40;2.35;;;1.20;;
67819;SDS011;54618;52.018;5.576;2023-04-29T08:43:11;1.52;;;1.08;;
67819;SDS011;54618;52.018;5.576;2023-04-29T08:45:38;2.60;;;0.90;;
67819;SDS011;54618;52.018;5.576;2023-04-29T08:48:05;1.88;;;1.00;;
67819;SDS011;54618;52.018;5.576;2023-04-29T08:50:32;1.75;;;1.05;;
67819;SDS011;54618;52.018;5.576;2023-04-29T08:53:02;2.80;;;1.00;;
67819;SDS011;54618;52.018;5.576;2023-04-29T08:55:30;1.83;;;1.00;;
67819;SDS011;54618;52.018;5.576;2023-04-29T08:57:56;1.75;;;1.05;;
67819;SDS011;54618;52.018;5.576;2023-04-29T09:00:21;2.72;;;1.20;;
67819;SDS011;54618;52.018;5.576;2023-04-29T09:02:49;1.95;;;1.13;;
67819;SDS011;54618;52.018;5.576;2023-04-29T09:05:16;2.88;;;1.10;;
67819;SDS011;54618;52.018;5.576;2023-04-29T09:07:42;1.50;;;1.00;;
67819;SDS011;54618;52.018;5.576;2023-04-29T09:10:08;2.30;;;1.20;;
67819;SDS011;54618;52.018;5.576;2023-04-29T09:12:34;1.90;;;1.25;;
67819;SDS011;54618;52.018;5.576;2023-04-29T09:15:01;2.50;;;1.00;;
67819;SDS011;54618;52.018;5.576;2023-04-29T09:17:38;1.50;;;1.10;;
67819;SDS011;54618;52.018;5.576;2023-04-29T09:22:46;2.17;;;1.20;;
67819;SDS011;54618;52.018;5.576;2023-04-29T09:25:12;1.30;;;1.00;;
67819;SDS011;54618;52.018;5.576;2023-04-29T09:27:39;1.75;;;0.98;;
67819;SDS011;54618;52.018;5.576;2023-04-29T09:30:04;1.67;;;1.00;;
67819;SDS011;54618;52.018;5.576;2023-04-29T09:32:30;7.60;;;1.42;;
67819;SDS011;54618;52.018;5.576;2023-04-29T09:34:56;1.80;;;1.10;;
67819;SDS011;54618;52.018;5.576;2023-04-29T09:37:22;2.00;;;1.02;;
67819;SDS011;54618;52.018;5.576;2023-04-29T09:39:50;4.22;;;1.10;;
67819;SDS011;54618;52.018;5.576;2023-04-29T09:42:15;1.83;;;1.10;;
67819;SDS011;54618;52.018;5.576;2023-04-29T09:44:41;4.25;;;1.25;;
67819;SDS011;54618;52.018;5.576;2023-04-29T09:47:08;2.83;;;1.10;;
67819;SDS011;54618;52.018;5.576;2023-04-29T09:52:03;2.58;;;1.20;;
67819;SDS011;54618;52.018;5.576;2023-04-29T09:54:30;1.42;;;1.02;;
67819;SDS011;54618;52.018;5.576;2023-04-29T09:56:58;3.38;;;1.00;;
67819;SDS011;54618;52.018;5.576;2023-04-29T09:59:26;2.78;;;1.10;;
67819;SDS011;54618;52.018;5.576;2023-04-29T10:01:55;1.70;;;1.10;;
67819;SDS011;54618;52.018;5.576;2023-04-29T10:04:23;2.22;;;1.25;;
67819;SDS011;54618;52.018;5.576;2023-04-29T10:06:51;1.77;;;1.05;;
67819;SDS011;54618;52.018;5.576;2023-04-29T10:09:21;1.88;;;1.10;;
67819;SDS011;54618;52.018;5.576;2023-04-29T10:11:48;2.67;;;1.10;;
67819;SDS011;54618;52.018;5.576;2023-04-29T10:14:16;1.98;;;1.10;;
67819;SDS011;54618;52.018;5.576;2023-04-29T10:19:25;2.72;;;1.00;;
67819;SDS011;54618;52.018;5.576;2023-04-29T10:21:57;1.60;;;1.08;;
67819;SDS011;54618;52.018;5.576;2023-04-29T10:24:28;1.63;;;1.05;;
67819;SDS011;54618;52.018;5.576;2023-04-29T10:26:56;1.67;;;1.13;;
67819;SDS011;54618;52.018;5.576;2023-04-29T10:29:23;1.05;;;0.82;;
67819;SDS011;54618;52.018;5.576;2023-04-29T10:31:51;1.23;;;0.80;;
67819;SDS011;54618;52.018;5.576;2023-04-29T10:34:18;1.75;;;0.98;;
67819;SDS011;54618;52.018;5.576;2023-04-29T10:36:44;1.52;;;0.98;;
67819;SDS011;54618;52.018;5.576;2023-04-29T10:39:11;1.08;;;0.80;;
67819;SDS011;54618;52.018;5.576;2023-04-29T10:41:45;1.38;;;0.90;;
67819;SDS011;54618;52.018;5.576;2023-04-29T10:44:11;2.10;;;1.00;;
67819;SDS011;54618;52.018;5.576;2023-04-29T10:46:37;1.75;;;1.00;;
67819;SDS011;54618;52.018;5.576;2023-04-29T10:49:04;1.15;;;0.90;;
67819;SDS011;54618;52.018;5.576;2023-04-29T10:51:40;2.20;;;1.10;;
67819;SDS011;54618;52.018;5.576;2023-04-29T10:56:36;1.38;;;0.90;;
67819;SDS011;54618;52.018;5.576;2023-04-29T10:59:02;1.55;;;0.98;;
67819;SDS011;54618;52.018;5.576;2023-04-29T11:01:40;1.33;;;0.95;;
67819;SDS011;54618;52.018;5.576;2023-04-29T11:04:06;2.17;;;1.10;;
67819;SDS011;54618;52.018;5.576;2023-04-29T11:09:02;1.20;;;0.80;;
67819;SDS011;54618;52.018;5.576;2023-04-29T11:12:07;1.42;;;0.90;;
67819;SDS011;54618;52.018;5.576;2023-04-29T11:14:40;1.40;;;0.80;;
67819;SDS011;54618;52.018;5.576;2023-04-29T11:19:41;1.23;;;0.80;;
67819;SDS011;54618;52.018;5.576;2023-04-29T11:24:52;4.63;;;2.10;;
67819;SDS011;54618;52.018;5.576;2023-04-29T11:27:23;2.40;;;1.70;;
67819;SDS011;54618;52.018;5.576;2023-04-29T11:29:54;2.03;;;1.50;;
67819;SDS011;54618;52.018;5.576;2023-04-29T11:32:22;2.38;;;1.40;;
67819;SDS011;54618;52.018;5.576;2023-04-29T11:34:49;2.05;;;1.33;;
67819;SDS011;54618;52.018;5.576;2023-04-29T11:37:23;1.90;;;1.30;;
67819;SDS011;54618;52.018;5.576;2023-04-29T11:39:51;2.50;;;1.30;;
67819;SDS011;54618;52.018;5.576;2023-04-29T11:42:25;3.08;;;1.38;;
67819;SDS011;54618;52.018;5.576;2023-04-29T11:44:51;2.47;;;1.40;;
67819;SDS011;54618;52.018;5.576;2023-04-29T11:47:20;1.85;;;1.13;;
67819;SDS011;54618;52.018;5.576;2023-04-29T11:50:00;2.05;;;1.30;;
67819;SDS011;54618;52.018;5.576;2023-04-29T11:52:27;3.38;;;1.30;;
67819;SDS011;54618;52.018;5.576;2023-04-29T11:54:53;2.67;;;1.20;;
67819;SDS011;54618;52.018;5.576;2023-04-29T11:57:19;2.17;;;1.20;;
67819;SDS011;54618;52.018;5.576;2023-04-29T11:59:45;4.20;;;1.27;;
67819;SDS011;54618;52.018;5.576;2023-04-29T12:02:11;1.90;;;1.15;;
67819;SDS011;54618;52.018;5.576;2023-04-29T12:04:46;2.20;;;1.15;;
67819;SDS011;54618;52.018;5.576;2023-04-29T12:07:15;2.00;;;1.13;;
67819;SDS011;54618;52.018;5.576;2023-04-29T12:09:42;2.40;;;1.20;;
67819;SDS011;54618;52.018;5.576;2023-04-29T12:12:08;1.75;;;1.13;;
67819;SDS011;54618;52.018;5.576;2023-04-29T12:14:34;1.48;;;1.20;;
67819;SDS011;54618;52.018;5.576;2023-04-29T12:17:01;3.05;;;1.35;;
67819;SDS011;54618;52.018;5.576;2023-04-29T12:19:27;3.28;;;1.40;;
67819;SDS011;54618;52.018;5.576;2023-04-29T12:21:52;2.20;;;1.00;;
67819;SDS011;54618;52.018;5.576;2023-04-29T12:24:22;2.30;;;1.13;;
67819;SDS011;54618;52.018;5.576;2023-04-29T12:26:49;2.05;;;1.10;;
67819;SDS011;54618;52.018;5.576;2023-04-29T12:29:15;3.65;;;1.10;;
67819;SDS011;54618;52.018;5.576;2023-04-29T12:31:40;1.95;;;1.10;;
67819;SDS011;54618;52.018;5.576;2023-04-29T12:34:07;1.50;;;1.10;;
67819;SDS011;54618;52.018;5.576;2023-04-29T12:36:33;2.22;;;1.10;;
67819;SDS011;54618;52.018;5.576;2023-04-29T12:38:58;2.47;;;1.00;;
67819;SDS011;54618;52.018;5.576;2023-04-29T12:41:40;2.25;;;1.10;;
67819;SDS011;54618;52.018;5.576;2023-04-29T12:44:06;1.92;;;1.00;;
67819;SDS011;54618;52.018;5.576;2023-04-29T12:46:35;1.55;;;0.93;;
67819;SDS011;54618;52.018;5.576;2023-04-29T12:49:02;2.88;;;1.10;;
67819;SDS011;54618;52.018;5.576;2023-04-29T12:51:29;1.60;;;1.17;;
67819;SDS011;54618;52.018;5.576;2023-04-29T12:53:59;2.15;;;1.20;;
67819;SDS011;54618;52.018;5.576;2023-04-29T12:56:27;2.78;;;1.30;;
67819;SDS011;54618;52.018;5.576;2023-04-29T12:58:53;3.05;;;1.30;;
67819;SDS011;54618;52.018;5.576;2023-04-29T13:01:19;1.75;;;1.02;;
67819;SDS011;54618;52.018;5.576;2023-04-29T13:03:45;2.00;;;0.93;;
67819;SDS011;54618;52.018;5.576;2023-04-29T13:06:10;1.27;;;1.02;;
67819;SDS011;54618;52.018;5.576;2023-04-29T13:08:36;0.98;;;0.80;;
67819;SDS011;54618;52.018;5.576;2023-04-29T13:11:01;2.50;;;1.30;;
67819;SDS011;54618;52.018;5.576;2023-04-29T13:13:27;2.15;;;1.20;;
67819;SDS011;54618;52.018;5.576;2023-04-29T13:15:53;1.63;;;1.20;;
67819;SDS011;54618;52.018;5.576;2023-04-29T13:18:18;2.97;;;1.20;;
67819;SDS011;54618;52.018;5.576;2023-04-29T13:20:44;5.47;;;1.40;;
67819;SDS011;54618;52.018;5.576;2023-04-29T13:23:10;2.88;;;1.30;;
67819;SDS011;54618;52.018;5.576;2023-04-29T13:25:38;4.68;;;1.50;;
67819;SDS011;54618;52.018;5.576;2023-04-29T13:28:04;7.50;;;1.50;;
67819;SDS011;54618;52.018;5.576;2023-04-29T13:30:31;3.85;;;1.30;;
67819;SDS011;54618;52.018;5.576;2023-04-29T13:32:56;2.53;;;1.17;;
67819;SDS011;54618;52.018;5.576;2023-04-29T13:35:22;2.30;;;1.20;;
67819;SDS011;54618;52.018;5.576;2023-04-29T13:37:47;2.95;;;1.10;;
67819;SDS011;54618;52.018;5.576;2023-04-29T13:40:13;1.98;;;1.30;;
67819;SDS011;54618;52.018;5.576;2023-04-29T13:42:39;3.88;;;1.67;;
67819;SDS011;54618;52.018;5.576;2023-04-29T13:45:04;2.28;;;1.05;;
67819;SDS011;54618;52.018;5.576;2023-04-29T13:47:30;2.67;;;1.30;;
67819;SDS011;54618;52.018;5.576;2023-04-29T13:49:56;2.17;;;1.10;;
67819;SDS011;54618;52.018;5.576;2023-04-29T13:52:22;2.58;;;1.15;;
67819;SDS011;54618;52.018;5.576;2023-04-29T13:54:48;2.38;;;1.00;;
67819;SDS011;54618;52.018;5.576;2023-04-29T13:57:13;2.72;;;1.10;;
67819;SDS011;54618;52.018;5.576;2023-04-29T13:59:39;1.80;;;1.10;;
67819;SDS011;54618;52.018;5.576;2023-04-29T14:02:04;4.45;;;1.55;;
67819;SDS011;54618;52.018;5.576;2023-04-29T14:04:30;3.75;;;1.30;;
67819;SDS011;54618;52.018;5.576;2023-04-29T14:06:56;3.15;;;1.48;;
67819;SDS011;54618;52.018;5.576;2023-04-29T14:09:22;1.65;;;1.00;;
67819;SDS011;54618;52.018;5.576;2023-04-29T14:11:48;1.70;;;1.10;;
67819;SDS011;54618;52.018;5.576;2023-04-29T14:14:14;2.65;;;1.00;;
67819;SDS011;54618;52.018;5.576;2023-04-29T14:16:40;2.78;;;1.00;;
67819;SDS011;54618;52.018;5.576;2023-04-29T14:19:06;3.58;;;1.45;;
67819;SDS011;54618;52.018;5.576;2023-04-29T14:21:31;2.88;;;1.00;;
67819;SDS011;54618;52.018;5.576;2023-04-29T14:24:00;1.90;;;1.20;;
67819;SDS011;54618;52.018;5.576;2023-04-29T14:26:27;2.50;;;1.15;;
67819;SDS011;54618;52.018;5.576;2023-04-29T14:28:53;2.13;;;1.05;;
67819;SDS011;54618;52.018;5.576;2023-04-29T14:31:32;1.90;;;1.00;;
67819;SDS011;54618;52.018;5.576;2023-04-29T14:34:00;3.03;;;1.20;;
67819;SDS011;54618;52.018;5.576;2023-04-29T14:36:25;4.13;;;1.25;;
67819;SDS011;54618;52.018;5.576;2023-04-29T14:38:52;2.10;;;1.23;;
67819;SDS011;54618;52.018;5.576;2023-04-29T14:41:17;3.15;;;1.20;;
67819;SDS011;54618;52.018;5.576;2023-04-29T14:43:45;1.75;;;1.02;;
67819;SDS011;54618;52.018;5.576;2023-04-29T14:46:10;2.03;;;1.02;;
67819;SDS011;54618;52.018;5.576;2023-04-29T14:48:36;4.63;;;1.02;;
67819;SDS011;54618;52.018;5.576;2023-04-29T14:51:02;1.95;;;1.17;;
67819;SDS011;54618;52.018;5.576;2023-04-29T14:53:27;2.13;;;1.20;;
67819;SDS011;54618;52.018;5.576;2023-04-29T14:55:53;5.70;;;1.20;;
67819;SDS011;54618;52.018;5.576;2023-04-29T14:58:19;2.42;;;1.20;;
67819;SDS011;54618;52.018;5.576;2023-04-29T15:00:45;3.60;;;1.10;;
67819;SDS011;54618;52.018;5.576;2023-04-29T15:03:10;3.17;;;1.27;;
67819;SDS011;54618;52.018;5.576;2023-04-29T15:05:36;2.60;;;1.15;;
67819;SDS011;54618;52.018;5.576;2023-04-29T15:08:02;1.92;;;1.20;;
67819;SDS011;54618;52.018;5.576;2023-04-29T15:10:27;2.30;;;1.00;;
67819;SDS011;54618;52.018;5.576;2023-04-29T15:12:54;1.48;;;0.90;;